Terminal Aerodrome Forecast
Issued by NWS North Platte, NE

Home | Current Version | Previous Version | Text Only | Print | Product List | Glossary On
Versions: 1 2 3 4 5 6 7 8 9 10 11 12 13 14 15 16 17 18 19 20
000
FTUS43 KLBF 211720
TAFVTN
TAF
KVTN 211720Z 2118/2218 04010KT P6SM VCTS SCT008 BKN020CB
     FM212000 03006KT P6SM VCTS BKN050CB
     FM212100 02006KT P6SM BKN050
     FM212300 01008KT P6SM SCT070
     FM221100 VRB04KT P6SM FEW150=

USA.gov is the U.S. government's official web portal to all federal, state and local government web resources and services.